createdAt,value
2023-01-29T00:02:34.076Z,65.20
2023-01-29T00:07:37.032Z,65.19
2023-01-29T00:12:40.116Z,64.96
2023-01-29T00:17:43.303Z,64.95
2023-01-29T00:22:46.474Z,65.03
2023-01-29T00:27:49.650Z,65.09
2023-01-29T00:32:52.684Z,64.80
2023-01-29T00:37:57.026Z,65.14
2023-01-29T00:43:01.681Z,65.35
2023-01-29T00:48:06.553Z,65.52
2023-01-29T00:53:09.916Z,65.89
2023-01-29T00:58:13.190Z,65.91
2023-01-29T01:03:16.796Z,65.61
2023-01-29T01:08:19.943Z,65.85
2023-01-29T01:13:23.173Z,65.76
2023-01-29T01:18:29.269Z,65.51
2023-01-29T01:23:32.665Z,65.74
2023-01-29T01:28:35.957Z,65.61
2023-01-29T01:33:39.862Z,65.93
2023-01-29T01:38:43.282Z,65.92
2023-01-29T01:43:51.395Z,65.76
2023-01-29T01:49:09.886Z,65.73
2023-01-29T01:54:35.375Z,65.80
2023-01-29T01:59:41.154Z,65.65
2023-01-29T02:04:48.784Z,65.82
2023-01-29T02:10:14.399Z,65.75
2023-01-29T02:15:17.893Z,65.83
2023-01-29T02:20:29.077Z,65.41
2023-01-29T02:25:56.832Z,65.38
2023-01-29T02:31:18.380Z,65.69
2023-01-29T02:36:45.152Z,65.57
2023-01-29T02:42:12.754Z,65.70
2023-01-29T02:47:36.807Z,65.67
2023-01-29T02:52:59.966Z,65.64
2023-01-29T02:58:11.973Z,65.91
2023-01-29T03:03:20.910Z,66.37
2023-01-29T03:08:43.020Z,66.27
2023-01-29T03:13:59.761Z,65.96
2023-01-29T03:19:09.815Z,66.09
2023-01-29T03:24:15.954Z,66.29
2023-01-29T03:29:21.830Z,66.18
2023-01-29T03:34:29.692Z,66.30
2023-01-29T03:39:33.033Z,66.42
2023-01-29T03:44:56.420Z,66.46
2023-01-29T03:50:13.537Z,66.47
2023-01-29T03:55:34.338Z,66.69
2023-01-29T04:01:10.761Z,66.76
2023-01-29T04:06:22.448Z,67.09
2023-01-29T04:11:42.040Z,66.93
2023-01-29T04:16:51.108Z,67.08
2023-01-29T04:22:07.482Z,66.67
2023-01-29T04:27:38.868Z,66.63
2023-01-29T04:33:09.521Z,67.39
2023-01-29T04:38:47.604Z,67.26
2023-01-29T04:44:21.931Z,67.09
2023-01-29T04:49:47.033Z,67.19
2023-01-29T04:55:03.724Z,67.54
2023-01-29T05:00:32.185Z,67.21
2023-01-29T05:05:36.557Z,67.96
2023-01-29T05:10:40.041Z,67.65
2023-01-29T05:16:00.675Z,67.86
2023-01-29T05:21:09.995Z,67.65
2023-01-29T05:26:13.246Z,67.80
2023-01-29T05:31:16.623Z,67.93
2023-01-29T05:36:19.972Z,67.79
2023-01-29T05:41:23.380Z,67.90
2023-01-29T05:46:26.657Z,68.06
2023-01-29T05:51:31.233Z,67.80
2023-01-29T05:56:34.935Z,68.27
2023-01-29T06:01:38.054Z,67.89
2023-01-29T06:20:33.002Z,68.67
2023-01-29T06:25:36.607Z,67.75
2023-01-29T06:30:40.046Z,66.06
2023-01-29T06:35:44.196Z,63.95
2023-01-29T06:40:47.265Z,63.84
2023-01-29T06:45:56.636Z,64.90
2023-01-29T06:51:07.451Z,65.28
2023-01-29T06:56:10.639Z,65.40
2023-01-29T07:01:25.353Z,65.77
2023-01-29T07:06:37.182Z,65.67
2023-01-29T07:11:40.809Z,65.17
2023-01-29T07:16:44.123Z,64.85
2023-01-29T07:21:47.257Z,65.09
2023-01-29T07:26:50.373Z,64.79
2023-01-29T07:31:53.700Z,64.18
2023-01-29T07:36:57.282Z,63.87
2023-01-29T07:42:01.355Z,63.96
2023-01-29T07:47:05.051Z,63.25
2023-01-29T07:52:08.421Z,62.23
2023-01-29T07:57:11.821Z,62.15
2023-01-29T08:02:15.347Z,61.99
2023-01-29T08:07:18.669Z,61.96
2023-01-29T08:12:22.432Z,61.51
2023-01-29T08:17:25.650Z,62.37
2023-01-29T08:22:28.581Z,62.13
2023-01-29T08:27:31.656Z,61.81
2023-01-29T08:32:34.813Z,61.41
2023-01-29T08:37:37.853Z,61.81
2023-01-29T08:42:41.359Z,61.41
2023-01-29T08:47:48.036Z,61.18
2023-01-29T08:52:51.287Z,60.46
2023-01-29T08:57:54.609Z,60.32
2023-01-29T09:02:58.102Z,60.33
2023-01-29T09:08:02.268Z,60.21
2023-01-29T09:13:05.669Z,59.44
2023-01-29T09:18:08.988Z,59.21
2023-01-29T09:23:12.047Z,59.69
2023-01-29T09:28:15.144Z,59.78
2023-01-29T09:33:18.351Z,59.62
2023-01-29T09:38:21.502Z,59.20
2023-01-29T09:43:36.802Z,59.40
2023-01-29T09:48:42.391Z,59.25
2023-01-29T09:53:59.915Z,58.83
2023-01-29T09:59:03.225Z,58.76
2023-01-29T10:04:43.055Z,58.95
2023-01-29T10:10:15.622Z,59.55
2023-01-29T10:15:44.909Z,59.66
2023-01-29T10:20:57.167Z,60.03
2023-01-29T10:26:01.091Z,59.68
2023-01-29T10:31:29.186Z,59.66
2023-01-29T10:36:40.573Z,59.52
2023-01-29T10:42:02.348Z,59.32
2023-01-29T10:47:45.165Z,59.15
2023-01-29T10:53:22.330Z,59.64
2023-01-29T10:58:44.972Z,59.25
2023-01-29T11:04:02.322Z,59.26
2023-01-29T11:09:17.580Z,59.08
2023-01-29T11:14:31.948Z,58.88
2023-01-29T11:19:42.866Z,59.03
2023-01-29T11:24:47.096Z,59.21
2023-01-29T11:29:50.929Z,58.96
2023-01-29T11:35:03.736Z,58.59
2023-01-29T11:40:20.102Z,58.89
2023-01-29T11:45:23.650Z,59.26
2023-01-29T11:50:30.954Z,59.03
2023-01-29T11:55:49.933Z,58.61
2023-01-29T12:00:56.953Z,59.14
2023-01-29T12:06:07.477Z,59.37
2023-01-29T12:11:10.726Z,59.39
2023-01-29T12:16:25.798Z,59.24
2023-01-29T12:21:38.966Z,59.44
2023-01-29T12:26:55.557Z,59.61
2023-01-29T12:32:04.328Z,59.93
2023-01-29T12:37:25.959Z,60.18
2023-01-29T12:42:29.634Z,60.22
2023-01-29T12:47:44.344Z,60.17
2023-01-29T12:52:56.601Z,59.86
2023-01-29T12:58:06.110Z,59.68
2023-01-29T13:03:26.466Z,59.97
2023-01-29T13:09:00.698Z,60.35
2023-01-29T13:14:28.886Z,60.15
2023-01-29T13:19:40.425Z,60.54
2023-01-29T13:24:49.952Z,60.46
2023-01-29T13:30:02.316Z,60.79
2023-01-29T13:35:14.234Z,60.60
2023-01-29T13:40:35.977Z,61.09
2023-01-29T13:45:45.301Z,61.46
2023-01-29T13:50:50.756Z,61.47
2023-01-29T13:55:55.442Z,61.43
2023-01-29T14:01:00.561Z,61.91
2023-01-29T14:06:04.019Z,61.79
2023-01-29T14:11:16.465Z,61.84
2023-01-29T14:16:19.581Z,61.76
2023-01-29T14:21:27.403Z,62.57
2023-01-29T14:26:55.930Z,62.38
2023-01-29T14:32:19.071Z,62.43
2023-01-29T14:37:33.178Z,62.55
2023-01-29T14:43:02.589Z,62.80
2023-01-29T14:48:11.707Z,63.12
2023-01-29T14:53:42.181Z,62.79
2023-01-29T14:59:20.700Z,62.92
2023-01-29T15:04:30.597Z,63.34
2023-01-29T15:09:46.753Z,63.42
2023-01-29T15:15:08.008Z,63.39
2023-01-29T15:20:32.413Z,63.84
2023-01-29T15:25:49.114Z,64.07
2023-01-29T15:30:57.514Z,64.14
2023-01-29T15:36:07.413Z,63.65
2023-01-29T15:41:19.992Z,63.70
2023-01-29T15:46:28.921Z,63.97
2023-01-29T15:51:36.841Z,63.83
2023-01-29T15:56:49.117Z,63.91
2023-01-29T16:01:53.937Z,63.99
2023-01-29T16:07:00.634Z,64.11
2023-01-29T16:12:04.845Z,64.50
2023-01-29T16:17:31.068Z,64.06
2023-01-29T16:22:38.427Z,64.36
2023-01-29T16:27:44.479Z,64.61
2023-01-29T16:32:51.244Z,64.88
2023-01-29T16:38:01.388Z,64.92
2023-01-29T16:43:20.726Z,65.17
2023-01-29T16:48:33.614Z,64.93
2023-01-29T16:53:36.958Z,65.36
2023-01-29T16:58:40.731Z,65.05
2023-01-29T17:03:44.499Z,65.51
2023-01-29T17:08:51.266Z,65.28
2023-01-29T17:13:59.721Z,65.77
2023-01-29T17:19:15.330Z,65.92
2023-01-29T17:24:18.619Z,66.23
2023-01-29T17:29:26.873Z,65.92
2023-01-29T17:34:30.205Z,65.94
2023-01-29T17:39:33.489Z,66.03
2023-01-29T17:44:36.704Z,65.90
2023-01-29T17:49:39.658Z,65.25
2023-01-29T17:54:42.922Z,65.35
2023-01-29T17:59:49.898Z,65.78
2023-01-29T18:04:53.492Z,65.39
2023-01-29T18:09:56.698Z,65.71
2023-01-29T18:15:00.816Z,65.82
2023-01-29T18:20:12.839Z,65.89
2023-01-29T18:25:16.914Z,65.89
2023-01-29T18:30:20.447Z,65.90
2023-01-29T18:35:24.218Z,65.49
2023-01-29T18:40:31.695Z,65.52
2023-01-29T18:45:35.603Z,65.88
2023-01-29T18:50:39.026Z,66.14
2023-01-29T18:55:43.638Z,66.18
2023-01-29T19:00:46.667Z,65.88
2023-01-29T19:05:49.998Z,65.85
2023-01-29T19:10:53.445Z,66.08
2023-01-29T19:15:57.148Z,66.05
2023-01-29T19:21:07.012Z,66.25
2023-01-29T19:26:10.705Z,66.26
2023-01-29T19:31:14.093Z,66.49
2023-01-29T19:36:17.395Z,66.55
2023-01-29T19:41:20.651Z,66.57
2023-01-29T19:46:23.807Z,66.64
2023-01-29T19:51:29.138Z,66.81
2023-01-29T19:56:34.687Z,66.58
2023-01-29T20:01:37.985Z,66.96
2023-01-29T20:06:41.287Z,66.42
2023-01-29T20:11:44.630Z,66.35
2023-01-29T20:16:47.645Z,66.28
2023-01-29T20:21:51.409Z,66.15
2023-01-29T20:26:54.376Z,66.08
2023-01-29T20:31:57.572Z,66.27
2023-01-29T20:37:01.083Z,66.39
2023-01-29T20:42:05.703Z,66.64
2023-01-29T20:47:10.322Z,66.62
2023-01-29T20:52:13.608Z,66.76
2023-01-29T20:57:16.768Z,66.48
2023-01-29T21:02:21.111Z,66.59
2023-01-29T21:07:25.689Z,66.57
2023-01-29T21:12:28.984Z,66.57
2023-01-29T21:17:32.238Z,66.51
2023-01-29T21:22:36.145Z,66.59
2023-01-29T21:27:39.523Z,66.47
2023-01-29T21:32:42.478Z,66.26
2023-01-29T21:37:46.430Z,66.47
2023-01-29T21:42:49.686Z,66.56
2023-01-29T21:47:52.791Z,65.81
2023-01-29T21:52:56.484Z,66.01
2023-01-29T21:58:00.612Z,66.28
2023-01-29T22:03:05.297Z,66.27
2023-01-29T22:08:08.511Z,66.37
2023-01-29T22:13:11.996Z,66.52
2023-01-29T22:18:15.513Z,66.24
2023-01-29T22:23:20.034Z,66.15
2023-01-29T22:28:23.796Z,66.44
2023-01-29T22:33:27.174Z,66.25
2023-01-29T22:38:30.904Z,66.31
2023-01-29T22:43:34.243Z,65.98
2023-01-29T22:48:37.429Z,65.85
2023-01-29T22:53:53.944Z,66.06
2023-01-29T22:58:59.428Z,66.49
2023-01-29T23:04:03.890Z,66.46
2023-01-29T23:09:07.019Z,66.07
2023-01-29T23:14:10.177Z,66.78
2023-01-29T23:19:13.146Z,66.79
2023-01-29T23:24:18.729Z,67.37
2023-01-29T23:29:22.008Z,67.74
2023-01-29T23:34:24.994Z,67.05
2023-01-29T23:39:28.217Z,68.18
2023-01-29T23:44:31.359Z,68.45
2023-01-29T23:49:34.490Z,68.20
2023-01-29T23:54:37.642Z,68.59
2023-01-29T23:59:41.246Z,68.73
